Time;durP1;ratioP1;P1;durP2;ratioP2;P2;SDS_P1;SDS_P2;PMS_P1;PMS_P2;Temp;Humidity;BMP_temperature;BMP_pressure;BME280_temperature;BME280_humidity;BME280_pressure;Samples;Min_cycle;Max_cycle;Signal;HPM_P1;HPM_P2
2023/10/19 00:01:09;;;;;;;13.80;10.90;;;;;;;;;;5129447;28;20267;-43
2023/10/19 00:03:35;;;;;;;14.40;10.63;;;;;;;;;;5141053;27;20207;-41
2023/10/19 00:06:05;;;;;;;11.17;9.47;;;;;;;;;;5133244;27;20224;-40
2023/10/19 00:08:40;;;;;;;15.27;10.47;;;;;;;;;;5122788;27;20215;-41
2023/10/19 00:11:09;;;;;;;16.07;11.23;;;;;;;;;;5136430;27;20259;-42
2023/10/19 00:13:35;;;;;;;12.97;10.37;;;;;;;;;;5126027;27;20231;-40
2023/10/19 00:16:11;;;;;;;17.13;11.93;;;;;;;;;;5137556;27;20203;-39
2023/10/19 00:18:42;;;;;;;10.90;8.87;;;;;;;;;;5132821;27;20221;-39
2023/10/19 00:21:19;;;;;;;14.80;11.50;;;;;;;;;;5135286;27;20207;-39
2023/10/19 00:23:48;;;;;;;12.30;10.17;;;;;;;;;;5128800;27;20646;-42
2023/10/19 00:26:15;;;;;;;13.77;10.60;;;;;;;;;;5134806;27;20560;-40
2023/10/19 00:28:45;;;;;;;13.10;10.80;;;;;;;;;;5122709;27;20222;-42
2023/10/19 00:31:11;;;;;;;14.70;11.57;;;;;;;;;;5139641;27;20201;-40
2023/10/19 00:33:39;;;;;;;12.27;9.30;;;;;;;;;;5138745;27;20260;-37
2023/10/19 00:36:07;;;;;;;15.20;11.40;;;;;;;;;;5130740;27;20203;-41
2023/10/19 00:38:47;;;;;;;14.63;10.13;;;;;;;;;;5134774;27;20227;-41
2023/10/19 00:41:20;;;;;;;13.63;10.47;;;;;;;;;;5134736;27;20201;-44
2023/10/19 00:43:49;;;;;;;11.03;8.93;;;;;;;;;;5127562;27;20215;-43
2023/10/19 00:46:20;;;;;;;11.10;8.60;;;;;;;;;;5132711;27;20230;-39
2023/10/19 00:48:49;;;;;;;12.63;9.97;;;;;;;;;;5134879;27;20242;-38
2023/10/19 00:51:28;;;;;;;13.93;11.27;;;;;;;;;;5136743;27;20207;-40
2023/10/19 00:53:59;;;;;;;14.90;10.87;;;;;;;;;;5131655;27;20231;-40
2023/10/19 00:56:29;;;;;;;13.13;10.93;;;;;;;;;;5134835;27;20207;-43
2023/10/19 00:59:00;;;;;;;14.17;10.83;;;;;;;;;;5124531;27;20583;-41
2023/10/19 01:01:29;;;;;;;10.03;8.87;;;;;;;;;;5123563;27;20263;-41
2023/10/19 01:03:58;;;;;;;15.73;11.33;;;;;;;;;;5138695;27;20210;-42
2023/10/19 01:06:25;;;;;;;11.30;9.07;;;;;;;;;;5137476;27;20192;-42
2023/10/19 01:08:52;;;;;;;13.93;9.83;;;;;;;;;;5128222;27;20224;-43
2023/10/19 01:11:22;;;;;;;12.23;9.73;;;;;;;;;;5132765;27;20199;-36
2023/10/19 01:13:51;;;;;;;15.13;10.70;;;;;;;;;;5126404;27;20248;-40
2023/10/19 01:16:21;;;;;;;13.60;10.27;;;;;;;;;;5131425;27;20203;-39
2023/10/19 01:18:53;;;;;;;13.70;10.47;;;;;;;;;;5138007;27;20246;-40
2023/10/19 01:21:21;;;;;;;12.63;9.93;;;;;;;;;;5127373;27;20199;-42
2023/10/19 01:23:50;;;;;;;10.53;8.47;;;;;;;;;;5140133;27;20203;-44
2023/10/19 01:26:21;;;;;;;14.90;10.80;;;;;;;;;;5143003;27;20243;-41
2023/10/19 01:28:51;;;;;;;10.63;8.43;;;;;;;;;;5125202;27;20228;-42
2023/10/19 01:31:30;;;;;;;11.27;8.70;;;;;;;;;;5133886;27;20478;-41
2023/10/19 01:34:00;;;;;;;13.50;10.07;;;;;;;;;;5134615;27;20199;-40
2023/10/19 01:36:27;;;;;;;10.10;7.43;;;;;;;;;;5132974;27;20211;-40
2023/10/19 01:39:00;;;;;;;10.70;9.07;;;;;;;;;;5127466;27;20219;-43
2023/10/19 01:41:27;;;;;;;11.77;10.50;;;;;;;;;;5140110;27;20198;-42
2023/10/19 01:44:04;;;;;;;12.37;9.03;;;;;;;;;;5120895;27;20196;-42
2023/10/19 01:46:33;;;;;;;9.93;7.17;;;;;;;;;;5130303;27;20215;-40
2023/10/19 01:49:02;;;;;;;12.77;9.87;;;;;;;;;;5131672;27;20219;-38
2023/10/19 01:51:29;;;;;;;10.90;8.90;;;;;;;;;;5133727;27;20200;-42
2023/10/19 01:53:58;;;;;;;13.93;10.70;;;;;;;;;;5131349;27;20199;-42
2023/10/19 01:56:25;;;;;;;15.97;11.03;;;;;;;;;;5140711;27;20670;-42
2023/10/19 01:58:52;;;;;;;14.67;10.90;;;;;;;;;;5121469;27;20268;-37
2023/10/19 02:01:20;;;;;;;11.80;9.83;;;;;;;;;;5129369;27;20199;-42
2023/10/19 02:03:52;;;;;;;12.20;9.20;;;;;;;;;;5139848;27;20283;-38
2023/10/19 02:06:19;;;;;;;13.03;10.43;;;;;;;;;;5127777;27;20204;-40
2023/10/19 02:08:51;;;;;;;13.87;10.93;;;;;;;;;;5121707;27;20317;-40
2023/10/19 02:11:21;;;;;;;11.30;10.10;;;;;;;;;;5127025;27;20199;-37
2023/10/19 02:13:49;;;;;;;9.43;7.77;;;;;;;;;;5124421;27;20282;-41
2023/10/19 02:16:15;;;;;;;11.00;8.27;;;;;;;;;;5126434;27;20298;-39
2023/10/19 02:18:44;;;;;;;11.37;8.73;;;;;;;;;;5133138;27;20219;-39
2023/10/19 02:21:12;;;;;;;12.43;10.73;;;;;;;;;;5135890;27;20229;-42
2023/10/19 02:23:41;;;;;;;9.93;8.33;;;;;;;;;;5138805;27;20195;-40
2023/10/19 02:26:07;;;;;;;10.33;8.50;;;;;;;;;;5141900;27;20215;-42
2023/10/19 02:28:38;;;;;;;8.37;7.47;;;;;;;;;;5122033;27;20212;-41
2023/10/19 02:31:15;;;;;;;10.50;8.10;;;;;;;;;;5126409;27;20215;-43
2023/10/19 02:33:45;;;;;;;11.97;9.73;;;;;;;;;;5140519;27;20198;-38
2023/10/19 02:36:12;;;;;;;11.87;9.00;;;;;;;;;;5136037;27;20191;-39
2023/10/19 02:38:41;;;;;;;15.13;9.67;;;;;;;;;;5131139;27;20241;-42
2023/10/19 02:41:09;;;;;;;12.30;10.17;;;;;;;;;;5140204;27;20209;-39
2023/10/19 02:43:38;;;;;;;9.53;8.53;;;;;;;;;;5129769;27;20354;-39
2023/10/19 02:46:04;;;;;;;11.20;8.53;;;;;;;;;;5127402;27;20275;-40
2023/10/19 02:48:32;;;;;;;8.80;7.27;;;;;;;;;;5138562;27;20226;-41
2023/10/19 02:51:05;;;;;;;9.87;8.33;;;;;;;;;;5128254;27;20204;-40
2023/10/19 02:53:34;;;;;;;12.03;8.93;;;;;;;;;;5125727;27;20202;-43
2023/10/19 02:56:01;;;;;;;14.73;8.80;;;;;;;;;;5134926;27;20204;-41
2023/10/19 02:58:28;;;;;;;14.77;8.80;;;;;;;;;;5120081;27;20310;-39
2023/10/19 03:00:57;;;;;;;11.90;8.50;;;;;;;;;;5128674;27;20259;-38
2023/10/19 03:03:23;;;;;;;10.70;8.87;;;;;;;;;;5132727;27;20199;-38
2023/10/19 03:05:55;;;;;;;12.20;8.20;;;;;;;;;;5132695;27;20322;-42
2023/10/19 03:08:23;;;;;;;10.67;7.83;;;;;;;;;;5122032;27;20195;-37
2023/10/19 03:11:03;;;;;;;8.27;6.70;;;;;;;;;;5131504;27;20199;-40
2023/10/19 03:13:45;;;;;;;6.53;5.70;;;;;;;;;;5123598;27;20206;-38
2023/10/19 03:16:13;;;;;;;7.57;5.97;;;;;;;;;;5132340;27;20236;-41
2023/10/19 03:18:39;;;;;;;11.17;9.00;;;;;;;;;;5132746;27;20254;-41
2023/10/19 03:21:07;;;;;;;11.77;8.60;;;;;;;;;;5131161;27;20211;-37
2023/10/19 03:23:34;;;;;;;7.70;6.90;;;;;;;;;;5128312;27;20230;-39
2023/10/19 03:26:27;;;;;;;10.10;7.80;;;;;;;;;;5139444;27;20219;-41
2023/10/19 03:28:55;;;;;;;8.03;7.10;;;;;;;;;;5113522;27;20219;-38
2023/10/19 03:31:25;;;;;;;10.47;8.67;;;;;;;;;;5124081;27;20203;-36
2023/10/19 03:33:54;;;;;;;9.17;7.43;;;;;;;;;;5130868;27;20195;-41
2023/10/19 03:36:22;;;;;;;11.03;8.57;;;;;;;;;;5120570;28;20195;-38
2023/10/19 03:38:51;;;;;;;11.77;8.27;;;;;;;;;;5132082;27;20226;-40
2023/10/19 03:41:21;;;;;;;9.87;8.10;;;;;;;;;;5140772;27;20290;-41
2023/10/19 03:43:48;;;;;;;8.63;7.73;;;;;;;;;;5135006;27;20243;-43
2023/10/19 03:46:22;;;;;;;6.33;5.73;;;;;;;;;;5132999;27;20312;-41
2023/10/19 03:48:50;;;;;;;9.23;7.97;;;;;;;;;;5133815;27;20259;-40
2023/10/19 03:51:18;;;;;;;7.80;6.27;;;;;;;;;;5131958;27;20203;-37
2023/10/19 03:53:53;;;;;;;9.47;6.63;;;;;;;;;;5127490;27;20203;-42
2023/10/19 03:56:21;;;;;;;10.17;6.77;;;;;;;;;;5134476;27;20213;-42
2023/10/19 03:58:50;;;;;;;8.07;6.83;;;;;;;;;;5125503;27;20223;-41
2023/10/19 04:01:19;;;;;;;10.20;6.87;;;;;;;;;;5137776;27;20218;-38
2023/10/19 04:03:46;;;;;;;8.80;6.90;;;;;;;;;;5134624;27;20211;-39
2023/10/19 04:06:15;;;;;;;8.43;7.10;;;;;;;;;;5134779;27;20219;-34
2023/10/19 04:08:45;;;;;;;9.50;7.13;;;;;;;;;;5131230;27;20313;-39
2023/10/19 04:11:21;;;;;;;8.43;7.23;;;;;;;;;;5133552;27;20203;-41
2023/10/19 04:13:52;;;;;;;5.97;4.93;;;;;;;;;;5123686;27;20290;-41
2023/10/19 04:16:20;;;;;;;7.43;6.50;;;;;;;;;;5130882;27;20203;-41
2023/10/19 04:18:48;;;;;;;5.40;4.90;;;;;;;;;;5133847;27;20223;-38
2023/10/19 04:21:16;;;;;;;8.67;6.00;;;;;;;;;;5128887;27;20298;-39
2023/10/19 04:23:43;;;;;;;9.93;7.43;;;;;;;;;;5135015;27;20208;-38
2023/10/19 04:26:14;;;;;;;8.33;7.43;;;;;;;;;;5132717;27;20234;-42
2023/10/19 04:28:49;;;;;;;11.77;6.10;;;;;;;;;;5120753;27;20239;-40
2023/10/19 04:31:18;;;;;;;5.10;4.60;;;;;;;;;;5130130;27;20230;-41
2023/10/19 04:33:47;;;;;;;11.67;6.50;;;;;;;;;;5125939;27;20678;-43
2023/10/19 04:36:15;;;;;;;8.90;5.40;;;;;;;;;;5137004;27;20187;-38
2023/10/19 04:38:44;;;;;;;4.90;4.40;;;;;;;;;;5122189;27;20275;-38
2023/10/19 04:41:12;;;;;;;7.70;6.30;;;;;;;;;;5129226;27;20651;-38
2023/10/19 04:43:39;;;;;;;8.10;6.50;;;;;;;;;;5127570;27;20203;-42
2023/10/19 04:46:10;;;;;;;5.57;4.70;;;;;;;;;;5135039;27;20219;-39
2023/10/19 04:48:39;;;;;;;5.93;5.27;;;;;;;;;;5136010;27;20701;-39
2023/10/19 04:51:06;;;;;;;5.50;4.60;;;;;;;;;;5129969;27;20887;-36
2023/10/19 04:53:34;;;;;;;5.57;5.07;;;;;;;;;;5128501;27;20209;-41
2023/10/19 04:56:03;;;;;;;6.90;5.50;;;;;;;;;;5138552;27;20209;-37
2023/10/19 04:58:30;;;;;;;13.43;7.17;;;;;;;;;;5112037;27;20765;-42
2023/10/19 05:00:58;;;;;;;7.87;6.90;;;;;;;;;;5136269;27;20196;-40
2023/10/19 05:03:26;;;;;;;7.70;5.93;;;;;;;;;;5138499;27;20228;-38
2023/10/19 05:05:53;;;;;;;5.37;4.87;;;;;;;;;;5131757;27;20324;-37
2023/10/19 05:08:24;;;;;;;8.80;6.57;;;;;;;;;;5127350;27;20202;-36
2023/10/19 05:10:51;;;;;;;7.93;6.40;;;;;;;;;;5140009;27;20199;-40
2023/10/19 05:13:20;;;;;;;8.53;5.93;;;;;;;;;;5127362;27;20200;-39
2023/10/19 05:15:47;;;;;;;6.93;6.23;;;;;;;;;;5135945;27;20252;-39
2023/10/19 05:18:14;;;;;;;7.63;5.77;;;;;;;;;;5136209;27;20260;-41
2023/10/19 05:20:41;;;;;;;6.20;5.40;;;;;;;;;;5146620;27;20242;-41
2023/10/19 05:23:09;;;;;;;6.10;5.50;;;;;;;;;;5127682;27;20214;-43
2023/10/19 05:25:37;;;;;;;8.77;6.17;;;;;;;;;;5130597;27;20253;-38
2023/10/19 05:28:05;;;;;;;12.60;6.13;;;;;;;;;;5115234;27;20211;-39
2023/10/19 05:30:33;;;;;;;9.13;6.10;;;;;;;;;;5126099;27;20195;-40
2023/10/19 05:33:02;;;;;;;8.10;5.10;;;;;;;;;;5116519;27;20217;-40
2023/10/19 05:35:30;;;;;;;6.90;5.50;;;;;;;;;;5112440;27;20227;-43
2023/10/19 05:37:58;;;;;;;4.60;4.17;;;;;;;;;;5129128;27;20218;-39
2023/10/19 05:40:29;;;;;;;4.93;4.50;;;;;;;;;;5144407;27;20227;-38
2023/10/19 05:42:56;;;;;;;6.67;5.97;;;;;;;;;;5126170;27;20204;-35
2023/10/19 05:45:23;;;;;;;5.90;5.30;;;;;;;;;;5125763;27;20202;-43
2023/10/19 05:47:52;;;;;;;6.63;5.83;;;;;;;;;;5131728;27;20296;-39
2023/10/19 05:50:19;;;;;;;4.93;4.43;;;;;;;;;;5137119;27;20214;-36
2023/10/19 05:52:47;;;;;;;5.63;4.90;;;;;;;;;;5119599;27;20208;-43
2023/10/19 05:55:14;;;;;;;5.63;5.13;;;;;;;;;;5128257;27;20203;-42
2023/10/19 05:57:41;;;;;;;6.67;5.93;;;;;;;;;;5129706;27;20655;-42
2023/10/19 06:00:12;;;;;;;5.90;5.30;;;;;;;;;;5127382;27;20227;-40
2023/10/19 06:02:39;;;;;;;5.47;4.97;;;;;;;;;;5133397;27;20207;-39
2023/10/19 06:05:08;;;;;;;6.27;5.67;;;;;;;;;;5133213;27;20211;-38
2023/10/19 06:07:35;;;;;;;8.30;5.90;;;;;;;;;;5126954;27;20225;-40
2023/10/19 06:10:04;;;;;;;5.60;5.10;;;;;;;;;;5138106;27;20237;-40
2023/10/19 06:12:32;;;;;;;5.33;4.83;;;;;;;;;;5117994;27;20681;-41
2023/10/19 06:15:01;;;;;;;5.63;5.13;;;;;;;;;;5146872;27;20206;-40
2023/10/19 06:17:28;;;;;;;6.13;4.80;;;;;;;;;;5150600;27;20199;-41
2023/10/19 06:19:55;;;;;;;7.93;6.33;;;;;;;;;;5134336;27;20258;-41
2023/10/19 06:22:24;;;;;;;5.53;5.03;;;;;;;;;;5125479;27;20203;-39
2023/10/19 06:24:51;;;;;;;6.07;5.47;;;;;;;;;;5133429;27;20506;-39
2023/10/19 06:27:18;;;;;;;7.70;6.70;;;;;;;;;;5124549;27;20223;-42
2023/10/19 06:29:46;;;;;;;6.27;4.77;;;;;;;;;;5131589;27;20257;-40
2023/10/19 06:32:14;;;;;;;6.13;5.40;;;;;;;;;;5142960;27;20215;-45
2023/10/19 06:34:41;;;;;;;8.33;6.03;;;;;;;;;;5133048;27;20290;-42
2023/10/19 06:37:10;;;;;;;5.30;4.63;;;;;;;;;;5124542;27;20373;-38
2023/10/19 06:39:41;;;;;;;7.93;6.77;;;;;;;;;;5124732;27;20219;-35
2023/10/19 06:42:14;;;;;;;5.50;5.00;;;;;;;;;;5128013;27;20211;-46
2023/10/19 06:44:43;;;;;;;8.27;6.50;;;;;;;;;;5128761;27;20219;-40
2023/10/19 06:47:10;;;;;;;10.97;6.70;;;;;;;;;;5133207;27;20223;-38
2023/10/19 06:49:37;;;;;;;7.77;6.07;;;;;;;;;;5133781;27;20229;-37
2023/10/19 06:52:05;;;;;;;7.67;5.57;;;;;;;;;;5121323;27;20294;-38
2023/10/19 06:54:33;;;;;;;9.30;7.00;;;;;;;;;;5127146;27;20227;-35
2023/10/19 06:57:03;;;;;;;6.80;5.57;;;;;;;;;;5137918;27;20206;-40
2023/10/19 06:59:33;;;;;;;9.63;7.03;;;;;;;;;;5116987;27;20223;-39
2023/10/19 07:02:01;;;;;;;6.70;6.00;;;;;;;;;;5127784;27;20234;-40
2023/10/19 07:04:28;;;;;;;9.67;7.10;;;;;;;;;;5131997;27;20195;-40
2023/10/19 07:06:56;;;;;;;8.80;7.07;;;;;;;;;;5126908;27;20231;-40
2023/10/19 07:09:23;;;;;;;10.57;7.73;;;;;;;;;;5137187;27;20308;-39
2023/10/19 07:11:53;;;;;;;22.53;13.17;;;;;;;;;;5139404;27;20226;-42
2023/10/19 07:14:22;;;;;;;22.07;14.10;;;;;;;;;;5124890;27;20234;-41
2023/10/19 07:16:50;;;;;;;19.77;12.13;;;;;;;;;;5130602;27;20207;-38
2023/10/19 07:19:17;;;;;;;22.77;15.67;;;;;;;;;;5131330;27;20227;-42
2023/10/19 07:21:48;;;;;;;18.50;12.03;;;;;;;;;;5127515;27;20207;-39
2023/10/19 07:24:18;;;;;;;20.20;12.67;;;;;;;;;;5131409;27;20199;-36
2023/10/19 07:26:53;;;;;;;9.57;7.57;;;;;;;;;;5138825;27;20218;-39
2023/10/19 07:29:21;;;;;;;8.70;7.80;;;;;;;;;;5121328;27;20321;-40
2023/10/19 07:31:48;;;;;;;8.10;6.30;;;;;;;;;;5137618;27;20206;-37
2023/10/19 07:34:16;;;;;;;12.33;8.73;;;;;;;;;;5131510;28;20289;-39
2023/10/19 07:36:43;;;;;;;9.07;6.47;;;;;;;;;;5131395;28;20688;-39
2023/10/19 07:39:18;;;;;;;13.40;8.70;;;;;;;;;;5120831;27;20232;-38
2023/10/19 07:41:46;;;;;;;9.37;7.80;;;;;;;;;;5124712;28;20199;-38
2023/10/19 07:44:13;;;;;;;6.93;6.10;;;;;;;;;;5131314;27;20198;-35
2023/10/19 07:46:42;;;;;;;9.77;6.73;;;;;;;;;;5127187;27;20245;-41
2023/10/19 07:49:14;;;;;;;10.37;7.47;;;;;;;;;;5136143;27;20226;-35
2023/10/19 07:51:41;;;;;;;8.70;6.87;;;;;;;;;;5124368;27;20298;-40
2023/10/19 07:54:09;;;;;;;9.70;7.60;;;;;;;;;;5130853;27;20203;-40
2023/10/19 07:56:36;;;;;;;10.10;6.97;;;;;;;;;;5136462;27;20258;-40
2023/10/19 07:59:03;;;;;;;8.20;7.33;;;;;;;;;;5125310;27;20227;-39
2023/10/19 08:01:31;;;;;;;12.23;7.97;;;;;;;;;;5130630;28;20221;-39
2023/10/19 08:04:00;;;;;;;10.47;7.40;;;;;;;;;;5137989;27;20206;-40
2023/10/19 08:06:27;;;;;;;9.23;8.27;;;;;;;;;;5142976;27;20294;-42
2023/10/19 08:08:55;;;;;;;8.87;7.67;;;;;;;;;;5120383;28;20218;-38
2023/10/19 08:11:23;;;;;;;12.80;8.70;;;;;;;;;;5131290;27;20203;-40
2023/10/19 08:13:50;;;;;;;9.40;7.80;;;;;;;;;;5133514;27;20211;-40
2023/10/19 08:16:17;;;;;;;10.63;7.63;;;;;;;;;;5132225;27;20466;-37
2023/10/19 08:18:44;;;;;;;8.30;6.37;;;;;;;;;;5131837;28;20228;-40
2023/10/19 08:21:13;;;;;;;9.77;6.93;;;;;;;;;;5121991;27;20195;-37
2023/10/19 08:23:42;;;;;;;10.13;9.13;;;;;;;;;;5129352;28;20207;-40
2023/10/19 08:26:09;;;;;;;10.70;8.27;;;;;;;;;;5134634;27;20203;-42
2023/10/19 08:28:36;;;;;;;13.90;8.37;;;;;;;;;;5125533;27;20345;-39
2023/10/19 08:31:05;;;;;;;9.63;7.00;;;;;;;;;;5141489;27;20290;-40
2023/10/19 08:33:33;;;;;;;9.47;8.00;;;;;;;;;;5133723;27;20226;-38
2023/10/19 08:36:00;;;;;;;15.90;9.40;;;;;;;;;;5128063;27;20211;-39
2023/10/19 08:38:29;;;;;;;13.57;8.43;;;;;;;;;;5141920;27;20227;-40
2023/10/19 08:40:56;;;;;;;11.53;8.33;;;;;;;;;;5135089;27;20203;-37
2023/10/19 08:43:24;;;;;;;12.43;8.60;;;;;;;;;;5125755;27;20217;-39
2023/10/19 08:45:51;;;;;;;10.27;8.90;;;;;;;;;;5132026;27;20211;-40
2023/10/19 08:48:18;;;;;;;13.73;8.47;;;;;;;;;;5151021;27;20728;-34
2023/10/19 08:50:46;;;;;;;10.40;8.80;;;;;;;;;;5135831;27;20207;-41
2023/10/19 08:53:14;;;;;;;9.73;8.50;;;;;;;;;;5137219;27;20207;-39
2023/10/19 08:55:43;;;;;;;8.83;7.10;;;;;;;;;;5135089;27;20199;-40
2023/10/19 08:58:10;;;;;;;11.37;7.53;;;;;;;;;;5129685;27;20199;-39
2023/10/19 09:00:46;;;;;;;9.43;8.23;;;;;;;;;;5140868;27;20216;-38
2023/10/19 09:03:14;;;;;;;13.97;9.17;;;;;;;;;;5120924;27;20207;-40
2023/10/19 09:05:41;;;;;;;9.40;7.83;;;;;;;;;;5129907;27;20214;-38
2023/10/19 09:08:09;;;;;;;14.27;8.77;;;;;;;;;;5128046;27;20218;-43
2023/10/19 09:10:37;;;;;;;12.97;8.83;;;;;;;;;;5133492;27;20237;-38
2023/10/19 09:13:07;;;;;;;11.47;8.40;;;;;;;;;;5131550;27;20207;-45
2023/10/19 09:15:35;;;;;;;12.37;8.20;;;;;;;;;;5130419;27;20208;-40
2023/10/19 09:18:13;;;;;;;9.53;7.97;;;;;;;;;;5143834;27;20298;-40
2023/10/19 09:20:41;;;;;;;10.70;8.70;;;;;;;;;;5134454;27;20206;-35
2023/10/19 09:23:08;;;;;;;10.13;8.27;;;;;;;;;;5130814;27;20256;-40
2023/10/19 09:25:35;;;;;;;12.57;9.17;;;;;;;;;;5136176;27;20209;-40
2023/10/19 09:28:03;;;;;;;10.53;9.20;;;;;;;;;;5122695;27;20224;-35
2023/10/19 09:30:32;;;;;;;12.47;8.53;;;;;;;;;;5131597;27;20219;-42
2023/10/19 09:32:59;;;;;;;11.77;8.90;;;;;;;;;;5140809;27;20216;-43
2023/10/19 09:35:27;;;;;;;10.83;8.23;;;;;;;;;;5136965;27;20198;-39
2023/10/19 09:37:56;;;;;;;11.60;9.00;;;;;;;;;;5131095;27;20202;-41
2023/10/19 09:40:24;;;;;;;12.10;8.83;;;;;;;;;;5136395;27;20227;-40
2023/10/19 09:42:55;;;;;;;11.23;8.40;;;;;;;;;;5124167;27;20520;-37
2023/10/19 09:45:24;;;;;;;13.10;8.50;;;;;;;;;;5130641;27;20204;-42
2023/10/19 09:47:54;;;;;;;9.83;7.77;;;;;;;;;;5145254;27;20283;-41
2023/10/19 09:50:21;;;;;;;10.43;8.10;;;;;;;;;;5132753;27;20311;-42
2023/10/19 09:52:48;;;;;;;8.80;7.27;;;;;;;;;;5125173;27;20208;-37
2023/10/19 09:55:19;;;;;;;11.17;7.87;;;;;;;;;;5122107;27;20203;-37
2023/10/19 09:57:50;;;;;;;17.00;8.27;;;;;;;;;;5116587;27;20200;-41
2023/10/19 10:00:23;;;;;;;9.90;7.77;;;;;;;;;;5131617;27;20628;-42
2023/10/19 10:02:50;;;;;;;10.93;7.83;;;;;;;;;;5127280;27;20290;-36
2023/10/19 10:05:36;;;;;;;8.63;7.73;;;;;;;;;;5131307;27;20206;-39
2023/10/19 10:08:22;;;;;;;8.80;6.67;;;;;;;;;;5134570;27;20214;-41
2023/10/19 10:10:51;;;;;;;9.33;7.50;;;;;;;;;;5132877;27;20532;-35
2023/10/19 10:13:37;;;;;;;10.13;7.60;;;;;;;;;;5120131;27;20199;-41
2023/10/19 10:16:05;;;;;;;10.37;7.80;;;;;;;;;;5130205;27;20205;-41
2023/10/19 10:18:32;;;;;;;8.40;7.50;;;;;;;;;;5141796;27;20211;-42
2023/10/19 10:21:09;;;;;;;8.67;7.33;;;;;;;;;;5137195;27;20210;-36
2023/10/19 10:23:42;;;;;;;12.03;7.27;;;;;;;;;;5131804;27;20219;-41
2023/10/19 10:26:11;;;;;;;8.60;7.27;;;;;;;;;;5139103;27;20203;-41
2023/10/19 10:28:38;;;;;;;9.57;7.23;;;;;;;;;;5123993;27;20233;-39
2023/10/19 10:31:09;;;;;;;10.33;8.10;;;;;;;;;;5143860;27;20202;-35
2023/10/19 10:33:40;;;;;;;9.60;7.40;;;;;;;;;;5139308;27;20662;-40
2023/10/19 10:36:07;;;;;;;9.50;7.50;;;;;;;;;;5132941;27;20199;-36
2023/10/19 10:38:35;;;;;;;10.43;7.47;;;;;;;;;;5120144;27;20395;-39
2023/10/19 10:41:02;;;;;;;9.13;8.07;;;;;;;;;;5132962;27;20203;-40
2023/10/19 10:43:31;;;;;;;12.90;7.83;;;;;;;;;;5122358;27;20207;-39
2023/10/19 10:46:05;;;;;;;10.80;7.17;;;;;;;;;;5132925;27;20222;-39
2023/10/19 10:48:32;;;;;;;13.10;7.30;;;;;;;;;;5137591;27;20226;-40
2023/10/19 10:50:59;;;;;;;8.23;7.13;;;;;;;;;;5137490;27;20205;-36
2023/10/19 10:53:27;;;;;;;11.53;7.50;;;;;;;;;;5120945;27;20283;-43
2023/10/19 10:55:54;;;;;;;10.67;7.37;;;;;;;;;;5125300;27;20220;-42
2023/10/19 10:58:21;;;;;;;10.67;8.33;;;;;;;;;;5119379;27;20188;-34
2023/10/19 11:00:51;;;;;;;12.50;9.17;;;;;;;;;;5137053;27;20206;-41
2023/10/19 11:03:18;;;;;;;12.10;9.90;;;;;;;;;;5138064;27;20290;-44
2023/10/19 11:05:46;;;;;;;11.70;8.73;;;;;;;;;;5132670;27;20207;-42
2023/10/19 11:08:14;;;;;;;12.20;9.37;;;;;;;;;;5118385;27;20217;-41
2023/10/19 11:10:46;;;;;;;11.03;8.63;;;;;;;;;;5137341;27;20244;-41
2023/10/19 11:13:14;;;;;;;12.13;8.27;;;;;;;;;;5123576;27;20191;-40
2023/10/19 11:15:48;;;;;;;12.57;8.33;;;;;;;;;;5131760;27;20494;-37
2023/10/19 11:18:29;;;;;;;12.20;8.47;;;;;;;;;;5138491;27;20191;-35
2023/10/19 11:20:59;;;;;;;11.13;7.57;;;;;;;;;;5123881;28;20205;-36
2023/10/19 11:23:36;;;;;;;9.13;7.67;;;;;;;;;;5130665;27;20717;-39
2023/10/19 11:26:05;;;;;;;10.40;8.77;;;;;;;;;;5126880;27;20210;-39
2023/10/19 11:28:33;;;;;;;12.53;8.43;;;;;;;;;;5129276;27;20616;-41
2023/10/19 11:31:11;;;;;;;13.97;8.60;;;;;;;;;;5144989;27;20211;-41
2023/10/19 11:33:41;;;;;;;11.00;9.90;;;;;;;;;;5133901;27;20247;-41
2023/10/19 11:36:08;;;;;;;11.40;9.83;;;;;;;;;;5126251;27;20211;-40
2023/10/19 11:38:37;;;;;;;11.23;8.87;;;;;;;;;;5135466;27;20223;-37
2023/10/19 11:41:04;;;;;;;9.33;8.30;;;;;;;;;;5144022;27;20275;-39
2023/10/19 11:43:31;;;;;;;14.07;9.33;;;;;;;;;;5124001;27;20196;-42
2023/10/19 11:45:59;;;;;;;23.63;18.13;;;;;;;;;;5139636;27;20198;-41
2023/10/19 11:48:26;;;;;;;16.70;12.87;;;;;;;;;;5137061;27;20219;-41
2023/10/19 11:50:55;;;;;;;11.73;8.93;;;;;;;;;;5125944;27;20206;-40
2023/10/19 11:53:22;;;;;;;15.83;11.43;;;;;;;;;;5130031;27;20374;-42
2023/10/19 11:55:49;;;;;;;12.40;9.60;;;;;;;;;;5132823;27;20203;-39
2023/10/19 11:58:16;;;;;;;13.03;11.30;;;;;;;;;;5130512;27;20200;-41
2023/10/19 12:00:46;;;;;;;11.63;9.87;;;;;;;;;;5125541;28;20203;-39
2023/10/19 12:03:13;;;;;;;13.73;9.63;;;;;;;;;;5133198;27;20203;-38
2023/10/19 12:05:42;;;;;;;11.67;9.50;;;;;;;;;;5134168;27;20210;-39
2023/10/19 12:08:10;;;;;;;13.53;9.53;;;;;;;;;;5128330;27;20710;-40
2023/10/19 12:10:38;;;;;;;11.60;10.37;;;;;;;;;;5140009;27;20256;-39
2023/10/19 12:13:07;;;;;;;13.17;10.13;;;;;;;;;;5130517;27;20207;-36
2023/10/19 12:15:34;;;;;;;32.20;23.30;;;;;;;;;;5132845;27;20214;-42
2023/10/19 12:18:02;;;;;;;23.37;17.87;;;;;;;;;;5129325;27;20199;-36
2023/10/19 12:20:30;;;;;;;10.13;9.10;;;;;;;;;;5134288;27;20657;-42
2023/10/19 12:22:58;;;;;;;16.73;14.07;;;;;;;;;;5137828;27;20203;-40
2023/10/19 12:25:31;;;;;;;13.87;10.90;;;;;;;;;;5125668;27;20210;-38
2023/10/19 12:27:59;;;;;;;11.67;10.27;;;;;;;;;;5119892;27;20213;-38
2023/10/19 12:30:31;;;;;;;11.83;10.00;;;;;;;;;;5137570;27;20223;-40
2023/10/19 12:33:01;;;;;;;12.73;10.37;;;;;;;;;;5135389;27;20198;-37
2023/10/19 12:35:44;;;;;;;11.13;10.00;;;;;;;;;;5131365;27;20209;-40
2023/10/19 12:38:15;;;;;;;12.87;10.50;;;;;;;;;;5132607;27;20199;-40
2023/10/19 12:40:44;;;;;;;11.83;10.47;;;;;;;;;;5133532;27;20203;-38
2023/10/19 12:43:12;;;;;;;12.33;9.33;;;;;;;;;;5136682;27;20204;-41
2023/10/19 12:45:39;;;;;;;12.97;9.53;;;;;;;;;;5137924;27;20195;-37
2023/10/19 12:48:07;;;;;;;12.13;9.30;;;;;;;;;;5137397;27;20630;-34
2023/10/19 12:50:36;;;;;;;14.97;9.90;;;;;;;;;;5131376;27;20204;-41
2023/10/19 12:53:03;;;;;;;11.37;9.43;;;;;;;;;;5135332;27;20228;-36
2023/10/19 12:55:31;;;;;;;10.93;9.27;;;;;;;;;;5142195;27;20205;-36
2023/10/19 12:58:06;;;;;;;11.40;9.47;;;;;;;;;;5131988;27;20255;-37
2023/10/19 13:00:43;;;;;;;18.07;10.07;;;;;;;;;;5120974;27;20207;-39
2023/10/19 13:03:13;;;;;;;11.73;9.30;;;;;;;;;;5128624;27;20285;-36
2023/10/19 13:05:42;;;;;;;11.53;9.70;;;;;;;;;;5135526;27;20205;-40
2023/10/19 13:08:13;;;;;;;14.37;8.87;;;;;;;;;;5143182;27;20226;-40
2023/10/19 13:10:43;;;;;;;10.93;9.10;;;;;;;;;;5124595;27;20212;-39
2023/10/19 13:13:12;;;;;;;11.57;9.43;;;;;;;;;;5125848;27;20199;-38
2023/10/19 13:15:41;;;;;;;13.13;9.80;;;;;;;;;;5135015;27;20230;-37
2023/10/19 13:18:09;;;;;;;14.13;9.53;;;;;;;;;;5134959;27;20199;-43
2023/10/19 13:20:37;;;;;;;11.07;8.67;;;;;;;;;;5128950;27;20263;-42
2023/10/19 13:23:05;;;;;;;9.67;7.47;;;;;;;;;;5129106;27;20210;-43
2023/10/19 13:25:46;;;;;;;11.10;7.67;;;;;;;;;;5131038;27;20200;-40
2023/10/19 13:28:17;;;;;;;6.67;5.97;;;;;;;;;;5116563;27;20325;-40
2023/10/19 13:30:45;;;;;;;9.37;6.47;;;;;;;;;;5137532;27;20214;-40
2023/10/19 13:33:13;;;;;;;8.83;7.17;;;;;;;;;;5142363;27;20263;-43
2023/10/19 13:35:41;;;;;;;10.43;6.83;;;;;;;;;;5141928;27;20203;-40
2023/10/19 13:38:09;;;;;;;10.70;7.93;;;;;;;;;;5120599;27;20303;-39
2023/10/19 13:40:37;;;;;;;8.40;6.00;;;;;;;;;;5131823;27;20191;-40
2023/10/19 13:43:06;;;;;;;12.40;6.80;;;;;;;;;;5127240;27;20218;-42
2023/10/19 13:45:35;;;;;;;6.37;5.77;;;;;;;;;;5131418;27;20225;-40
2023/10/19 13:48:02;;;;;;;8.00;6.20;;;;;;;;;;5142139;27;20216;-34
2023/10/19 13:50:30;;;;;;;7.07;5.93;;;;;;;;;;5133781;27;20310;-40
2023/10/19 13:52:57;;;;;;;7.20;5.70;;;;;;;;;;5126577;27;20285;-39
2023/10/19 13:55:25;;;;;;;8.40;6.73;;;;;;;;;;5132871;27;20213;-35
2023/10/19 13:57:52;;;;;;;11.87;6.37;;;;;;;;;;5126702;27;20204;-35
2023/10/19 14:00:23;;;;;;;23.83;6.87;;;;;;;;;;5136661;27;20224;-39
2023/10/19 14:02:52;;;;;;;9.93;6.60;;;;;;;;;;5143000;27;20208;-41
2023/10/19 14:05:19;;;;;;;8.33;5.90;;;;;;;;;;5132357;27;20207;-39
2023/10/19 14:07:47;;;;;;;9.27;6.67;;;;;;;;;;5123743;27;20290;-37
2023/10/19 14:10:15;;;;;;;11.60;6.77;;;;;;;;;;5139176;27;20222;-43
2023/10/19 14:12:42;;;;;;;7.33;6.53;;;;;;;;;;5127119;27;20208;-39
2023/10/19 14:15:11;;;;;;;8.33;6.90;;;;;;;;;;5138293;27;20202;-41
2023/10/19 14:17:39;;;;;;;9.00;6.80;;;;;;;;;;5135163;27;20284;-42
2023/10/19 14:20:12;;;;;;;8.67;6.57;;;;;;;;;;5136050;27;20220;-39
2023/10/19 14:22:39;;;;;;;6.43;5.77;;;;;;;;;;5126951;27;20192;-40
2023/10/19 14:25:07;;;;;;;7.57;6.60;;;;;;;;;;5133659;27;20196;-37
2023/10/19 14:27:35;;;;;;;9.97;6.57;;;;;;;;;;5126244;27;20197;-39
2023/10/19 14:30:03;;;;;;;8.53;6.70;;;;;;;;;;5130104;27;20226;-43
2023/10/19 14:32:31;;;;;;;7.77;6.67;;;;;;;;;;5143844;27;20202;-40
2023/10/19 14:34:59;;;;;;;12.77;7.83;;;;;;;;;;5132403;27;20278;-40
2023/10/19 14:37:27;;;;;;;8.60;7.17;;;;;;;;;;5120484;27;20235;-38
2023/10/19 14:39:55;;;;;;;8.77;7.27;;;;;;;;;;5130339;27;20228;-40
2023/10/19 14:42:22;;;;;;;12.57;7.87;;;;;;;;;;5127441;27;20203;-37
2023/10/19 14:44:49;;;;;;;11.27;8.07;;;;;;;;;;5126246;27;20286;-38